BFIBOEING FIELD/KING COUNTY INTL
METARs for airports near BFI, sorted by distance:
N 0 nm 21' KBFI 040453Z 23003KT 10SM OVC110 17/09 A3013
SE 4 nm 32' KRNT 040453Z 00000KT 10SM OVC050 17/09 A3013
S 4 nm 432' KSEA 040453Z 24004KT 10SM BKN046 BKN110 16/09 A3014
W 18 nm 444' KPWT 040456Z 05004KT 10SM FEW028 12/10 A3015
SW 19 nm 294' KTIW 040453Z 23003KT 10SM SCT110 14/09 A3014
N 22 nm 607' KPAE 040453Z 33004KT 9SM FEW004 OVC060 13/12 A3015
S 24 nm 322' KTCM 040458Z 28005KT 10SM SCT046 OVC160 16/10 A3014
S 25 nm 537' KPLU 040515Z 00000KT 10SM FEW032 OVC040 15/12 A3015
S 29 nm 301' KGRF 040458Z 26005KT 10SM SCT100 OVC160 16/14 A3013
N 38 nm 141' KAWO 040456Z 35003KT 10SM BKN070 13/12 A3015
SW 38 nm 272' KSHN 040453Z 25008KT 10SM CLR 13/10 A3012
SW 41 nm 207' KOLM 040454Z 00000KT 10SM SCT110 15/09 A3014
N 51 nm 47' KNUW 040456Z 33005KT 10SM SCT060 BKN090 12/10 A3019
N 56 nm 145' KBVS 040515Z 32003KT 10SM SCT043 OVC050 13/13 A3015
NW 57 nm 13' KNOW 040510Z 00000KT 10SM BKN040 BKN048 OVC070 11/10 A3017
SW 58 nm 177' KCLS 040515Z 00000KT 10SM FEW033 14/12 A3015
NW 59 nm 291' KCLM 040453Z 00000KT 10SM FEW065 OVC080 12/10 A3017
NW 66 nm 112' KFHR 040453Z 00000KT 10SM -RA FEW004 OVC030 12/12 A3017
SW 74 nm 17' KHQM 040453Z 34003KT 10SM FEW095 13/10 A3016
N 74 nm 34' KORS 040515Z 00000KT 4SM -RA BR BKN003 OVC007 12/12 A3016
N 76 nm 171' KBLI 040526Z 01005KT 5SM BR BKN004 OVC060 13/12 A3016
E 78 nm 1763' KELN 040453Z 30018G25KT 10SM CLR 17/07 A3005
NW 80 nm 64' CYYJ 040500Z 12002KT 7SM -RA FEW004 FEW015 BKN034 OVC049 12/12 A3016
E 85 nm 1248' KEAT 040455Z 29014KT 10SM BKN100 19/04 A3002
S 88 nm 20' KKLS 040456Z VRB04KT 10SM CLR 16/11 A3015
SE 92 nm 1098' KYKM 040453Z 35005KT 10SM CLR 20/07 A3001
W 94 nm 193' KUIL 040453Z 00000KT 10SM FEW003 OVC035 12/12 A3016
TAFs for airports near BFI, sorted by distance:
N 0 nm 21' KBFI KBFI 040522Z 0406/0506 VRB04KT P6SM BKN050 BKN100
  FM041000 00000KT P6SM BKN040
  FM041800 VRB04KT P6SM BKN050
  FM042200 33005KT P6SM BKN050
S 4 nm 432' KSEA KSEA 040522Z 0406/0512 VRB04KT P6SM BKN050 BKN100
  FM041000 00000KT P6SM BKN035
  FM041800 VRB04KT P6SM BKN050
  FM042200 35007KT P6SM BKN050
W 18 nm 444' KPWT TAF KPWT 040522Z 0406/0506 05005KT P6SM SCT030 SCT050 BKN100
  FM041000 00000KT P6SM BKN030 BKN050
  FM041800 VRB04KT P6SM SCT030 BKN050
  FM042200 35007KT P6SM BKN050
N 22 nm 607' KPAE KPAE 040522Z 0406/0506 33005KT P6SM BKN050 BKN100
  FM041000 04004KT P6SM BKN035
  FM041800 VRB04KT P6SM BKN050
  FM042200 35007KT P6SM BKN050
S 24 nm 322' KTCM TAF KTCM 040500Z 0405/0511 25006KT 9999 BKN020 OVC030 QNH3012INS
  BECMG 0417/0418 27009KT 9999 SCT040 BKN060 QNH3014INS
  BECMG 0505/0506 28006KT 9999 SCT040 QNH3019INS TX22/0421Z TN11/0412Z
S 29 nm 301' KGRF TAF COR KGRF 040422Z 0404/0503 25009KT 9999 BKN100 QNH3010INS
  BECMG 0407/0408 VRB06KT 9999 BKN090 611104 QNH3013INS
  BECMG 0410/0411 VRB06KT 9999 FEW090 SCT110 QNH3013INS TX20/0421Z TN12/0411Z LAST NO
  AMDS AFT 0404 NEXT 0513
SW 41 nm 207' KOLM KOLM 040522Z 0406/0506 00000KT P6SM SCT050 BKN100
  FM041000 00000KT P6SM BKN035
  FM041800 VRB04KT P6SM BKN050
  FM042200 21007KT P6SM SCT050
N 51 nm 47' KNUW TAF TAF KNUW 0323/0423 VRB06KT 9999 VCSH SCT025 BKN040 OVC100 QNH3007INS
  TEMPO 0323/0405 8000 -SHRA BKN025 OVC040
  FM041200 VRB06KT 9999 BKN025 OVC040 QNH3014INS
  BECMG 0418/0419 VRB06KT 9999 SCT025 BKN040 OVC100 QNH3015INS T09/0412Z T15/0422Z FS30134
NW 59 nm 291' KCLM KCLM 040522Z 0406/0506 00000KT P6SM BKN080
  FM041000 VRB04KT P6SM BKN050
  FM042200 30007KT P6SM SCT050
SW 74 nm 17' KHQM KHQM 040522Z 0406/0506 VRB04KT P6SM SCT050 SCT100
  FM041000 00000KT P6SM BKN040
  FM041800 VRB04KT P6SM BKN040
  FM042200 33007KT P6SM SCT050
N 76 nm 171' KBLI KBLI 040522Z 0406/0506 02004KT P6SM FEW005 OVC050
  TEMPO 0406/0409 5SM -SHRA BR
  FM041000 00000KT P6SM BKN030 OVC050
  FM041800 VRB04KT P6SM SCT030 BKN050
  FM042200 21005KT P6SM BKN050
E 85 nm 1248' KEAT TAF KEAT 040520Z 0406/0506 31011KT P6SM BKN200
  FM041800 26006KT P6SM SKC
  FM050100 29012KT P6SM BKN250
  FM050200 29015G21KT P6SM SKC
  FM050400 29012KT P6SM SKC
SE 92 nm 1098' KYKM TAF KYKM 040520Z 0406/0506 34005KT P6SM SKC

Shortcut to this page: http://wxbay.com.

Data may contain errors.